createdAt,value
2022-11-14T00:00:59.970Z,13.55
2022-11-14T00:03:26.501Z,14.88
2022-11-14T00:05:53.053Z,13.80
2022-11-14T00:08:22.119Z,13.25
2022-11-14T00:10:50.674Z,13.85
2022-11-14T00:13:18.502Z,14.98
2022-11-14T00:15:50.211Z,14.32
2022-11-14T00:18:18.352Z,14.23
2022-11-14T00:20:48.653Z,13.48
2022-11-14T00:23:15.262Z,13.15
2022-11-14T00:25:41.785Z,13.60
2022-11-14T00:28:08.988Z,13.88
2022-11-14T00:30:35.631Z,13.30
2022-11-14T00:33:02.172Z,14.23
2022-11-14T00:35:28.720Z,15.07
2022-11-14T00:37:55.281Z,13.95
2022-11-14T00:40:21.800Z,15.35
2022-11-14T00:42:48.368Z,14.47
2022-11-14T00:45:15.409Z,15.60
2022-11-14T00:47:42.013Z,14.40
2022-11-14T00:50:10.043Z,15.35
2022-11-14T00:52:37.090Z,16.05
2022-11-14T00:55:03.864Z,13.87
2022-11-14T00:57:30.404Z,16.00
2022-11-14T00:59:56.928Z,14.02
2022-11-14T01:02:23.994Z,14.15
2022-11-14T01:04:50.525Z,15.88
2022-11-14T01:07:17.099Z,14.77
2022-11-14T01:09:43.702Z,14.15
2022-11-14T01:12:10.336Z,15.20
2022-11-14T01:14:36.869Z,14.00
2022-11-14T01:17:03.960Z,15.60
2022-11-14T01:19:30.471Z,14.07
2022-11-14T01:21:59.568Z,14.00
2022-11-14T01:24:28.343Z,14.30
2022-11-14T01:26:56.431Z,15.20
2022-11-14T01:29:23.302Z,15.43
2022-11-14T01:31:50.049Z,13.93
2022-11-14T01:34:17.101Z,13.88
2022-11-14T01:36:43.651Z,14.45
2022-11-14T01:39:10.168Z,14.02
2022-11-14T01:41:36.698Z,13.80
2022-11-14T01:44:03.229Z,14.10
2022-11-14T01:46:35.093Z,15.25
2022-11-14T01:49:10.602Z,14.30
2022-11-14T01:51:48.875Z,13.57
2022-11-14T01:54:28.236Z,12.73
2022-11-14T01:57:03.730Z,12.83
2022-11-14T01:59:35.118Z,14.55
2022-11-14T02:02:17.429Z,14.55
2022-11-14T02:04:51.192Z,13.68
2022-11-14T02:07:18.893Z,13.57
2022-11-14T02:09:48.352Z,14.23
2022-11-14T02:12:17.953Z,13.15
2022-11-14T02:14:46.984Z,14.02
2022-11-14T02:17:29.099Z,13.98
2022-11-14T02:20:05.363Z,13.05
2022-11-14T02:22:32.640Z,13.10
2022-11-14T02:24:59.332Z,13.68
2022-11-14T02:27:26.289Z,14.50
2022-11-14T02:29:52.765Z,12.85
2022-11-14T02:32:19.341Z,12.38
2022-11-14T02:34:45.883Z,12.43
2022-11-14T02:37:12.573Z,13.75
2022-11-14T02:39:39.193Z,13.30
2022-11-14T02:42:05.837Z,12.60
2022-11-14T02:44:32.613Z,13.23
2022-11-14T02:46:59.174Z,13.07
2022-11-14T02:49:25.647Z,11.98
2022-11-14T02:51:52.163Z,11.95
2022-11-14T02:54:18.678Z,12.85
2022-11-14T02:56:45.211Z,13.43
2022-11-14T02:59:11.748Z,11.63
2022-11-14T03:01:38.336Z,11.60
2022-11-14T03:04:05.230Z,11.07
2022-11-14T03:06:31.676Z,11.98
2022-11-14T03:08:58.243Z,12.07
2022-11-14T03:11:24.794Z,11.33
2022-11-14T03:13:51.269Z,12.07
2022-11-14T03:16:17.966Z,12.15
2022-11-14T03:18:44.499Z,13.35
2022-11-14T03:21:13.613Z,11.05
2022-11-14T03:23:40.261Z,10.93
2022-11-14T03:26:09.366Z,12.80
2022-11-14T03:28:36.644Z,11.48
2022-11-14T03:31:03.763Z,11.15
2022-11-14T03:33:30.421Z,12.27
2022-11-14T03:35:56.952Z,11.27
2022-11-14T03:38:23.938Z,10.20
2022-11-14T03:40:51.297Z,10.23
2022-11-14T03:43:19.590Z,10.57
2022-11-14T03:45:46.492Z,11.55
2022-11-14T03:48:13.769Z,11.00
2022-11-14T03:50:40.881Z,10.68
2022-11-14T03:53:07.747Z,10.88
2022-11-14T03:55:34.299Z,9.93
2022-11-14T03:58:00.969Z,10.68
2022-11-14T04:00:28.835Z,9.90
2022-11-14T04:02:56.653Z,11.18
2022-11-14T04:05:24.192Z,10.52
2022-11-14T04:07:50.735Z,11.00
2022-11-14T04:10:18.211Z,9.77
2022-11-14T04:12:49.533Z,11.00
2022-11-14T04:15:17.256Z,10.32
2022-11-14T04:17:44.369Z,10.20
2022-11-14T04:20:11.809Z,10.98
2022-11-14T04:22:38.811Z,10.35
2022-11-14T04:25:06.251Z,10.37
2022-11-14T04:27:32.850Z,10.20
2022-11-14T04:29:59.394Z,10.45
2022-11-14T04:32:26.051Z,9.45
2022-11-14T04:34:52.632Z,10.48
2022-11-14T04:37:19.173Z,9.73
2022-11-14T04:39:45.641Z,9.55
2022-11-14T04:42:12.121Z,10.52
2022-11-14T04:44:38.840Z,9.95
2022-11-14T04:47:05.488Z,10.38
2022-11-14T04:49:32.073Z,10.23
2022-11-14T04:51:58.802Z,9.93
2022-11-14T04:54:25.336Z,9.82
2022-11-14T04:56:51.795Z,10.40
2022-11-14T04:59:20.945Z,10.25
2022-11-14T05:01:47.950Z,10.17
2022-11-14T05:04:14.575Z,10.13
2022-11-14T05:06:41.063Z,10.60
2022-11-14T05:09:07.580Z,9.45
2022-11-14T05:11:34.059Z,11.10
2022-11-14T05:14:00.594Z,9.10
2022-11-14T05:16:27.131Z,9.70
2022-11-14T05:18:54.512Z,9.35
2022-11-14T05:21:21.138Z,9.77
2022-11-14T05:23:47.645Z,9.73
2022-11-14T05:26:18.594Z,9.53
2022-11-14T05:28:45.535Z,9.10
2022-11-14T05:31:15.304Z,9.98
2022-11-14T05:33:41.848Z,9.57
2022-11-14T05:36:13.675Z,10.00
2022-11-14T05:38:40.651Z,9.70
2022-11-14T05:41:07.962Z,10.50
2022-11-14T05:43:34.863Z,11.02
2022-11-14T05:46:02.614Z,10.20
2022-11-14T05:48:30.749Z,9.27
2022-11-14T05:51:02.350Z,9.70
2022-11-14T05:53:30.095Z,9.32
2022-11-14T05:56:04.230Z,9.55
2022-11-14T05:58:32.268Z,9.15
2022-11-14T06:01:09.255Z,10.27
2022-11-14T06:03:41.716Z,9.70
2022-11-14T06:06:11.216Z,10.23
2022-11-14T06:08:38.396Z,9.90
2022-11-14T06:11:14.045Z,9.75
2022-11-14T06:13:41.362Z,9.88
2022-11-14T06:16:11.156Z,9.43
2022-11-14T06:18:38.549Z,10.05
2022-11-14T06:21:25.096Z,10.70
2022-11-14T06:23:51.945Z,10.55
2022-11-14T06:26:27.240Z,9.57
2022-11-14T06:28:54.012Z,8.77
2022-11-14T06:31:21.439Z,9.25
2022-11-14T06:33:48.383Z,9.32
2022-11-14T06:36:15.392Z,9.73
2022-11-14T06:38:43.146Z,9.68
2022-11-14T06:41:11.816Z,9.60
2022-11-14T06:43:46.506Z,9.23
2022-11-14T06:46:17.100Z,9.93
2022-11-14T06:48:44.812Z,10.40
2022-11-14T06:51:12.727Z,10.35
2022-11-14T06:53:39.819Z,10.63
2022-11-14T06:56:12.300Z,9.98
2022-11-14T06:58:41.405Z,9.80
2022-11-14T07:01:20.466Z,9.23
2022-11-14T07:03:47.832Z,8.48
2022-11-14T07:06:18.084Z,8.97
2022-11-14T07:08:44.664Z,10.65
2022-11-14T07:11:23.038Z,10.00
2022-11-14T07:13:51.516Z,9.63
2022-11-14T07:16:18.478Z,10.57
2022-11-14T07:18:45.020Z,9.70
2022-11-14T07:21:13.380Z,9.63
2022-11-14T07:23:41.164Z,9.35
2022-11-14T07:26:10.388Z,9.95
2022-11-14T07:28:39.290Z,10.02
2022-11-14T07:31:08.006Z,10.00
2022-11-14T07:33:35.103Z,11.20
2022-11-14T07:36:02.013Z,10.90
2022-11-14T07:38:30.414Z,10.00
2022-11-14T07:41:01.912Z,10.43
2022-11-14T07:43:29.098Z,10.80
2022-11-14T07:46:06.406Z,9.25
2022-11-14T07:48:33.324Z,9.45
2022-11-14T07:51:01.997Z,9.70
2022-11-14T07:53:28.960Z,10.10
2022-11-14T07:55:56.767Z,9.97
2022-11-14T07:58:23.791Z,9.20
2022-11-14T08:00:50.354Z,10.95
2022-11-14T08:03:16.948Z,9.55
2022-11-14T08:05:43.563Z,9.68
2022-11-14T08:08:10.256Z,10.83
2022-11-14T08:10:36.774Z,9.35
2022-11-14T08:15:53.481Z,9.50
2022-11-14T08:18:20.411Z,10.90
2022-11-14T08:20:47.048Z,9.27
2022-11-14T08:23:13.984Z,9.30
2022-11-14T08:25:41.397Z,8.38
2022-11-14T08:28:08.511Z,8.80
2022-11-14T08:30:35.460Z,8.85
2022-11-14T08:33:03.631Z,9.93
2022-11-14T08:35:30.369Z,8.20
2022-11-14T08:37:56.924Z,9.40
2022-11-14T08:40:23.620Z,9.70
2022-11-14T08:42:50.191Z,10.20
2022-11-14T08:45:16.912Z,9.77
2022-11-14T08:47:43.471Z,10.02
2022-11-14T08:50:10.038Z,9.50
2022-11-14T08:52:36.612Z,9.23
2022-11-14T08:55:03.401Z,9.95
2022-11-14T08:57:29.917Z,9.73
2022-11-14T08:59:56.462Z,10.02
2022-11-14T09:02:23.010Z,10.50
2022-11-14T09:04:49.520Z,10.38
2022-11-14T09:07:16.257Z,9.65
2022-11-14T09:09:43.022Z,9.07
2022-11-14T09:12:09.511Z,9.63
2022-11-14T09:14:36.010Z,10.07
2022-11-14T09:17:05.848Z,10.10
2022-11-14T09:19:32.718Z,9.65
2022-11-14T09:21:59.265Z,10.17
2022-11-14T09:24:25.788Z,10.25
2022-11-14T09:26:56.658Z,9.73
2022-11-14T09:29:23.877Z,10.13
2022-11-14T09:31:51.935Z,11.50
2022-11-14T09:34:18.520Z,9.90
2022-11-14T09:36:45.109Z,10.60
2022-11-14T09:39:11.629Z,11.38
2022-11-14T09:42:05.927Z,10.23
2022-11-14T09:44:56.684Z,10.68
2022-11-14T09:47:30.779Z,10.03
2022-11-14T09:50:11.186Z,10.35
2022-11-14T09:52:45.134Z,10.35
2022-11-14T09:55:18.314Z,9.80
2022-11-14T09:57:46.133Z,11.45
2022-11-14T10:00:51.501Z,10.80
2022-11-14T10:03:25.199Z,11.27
2022-11-14T10:06:13.695Z,10.18
2022-11-14T10:08:55.688Z,10.52
2022-11-14T10:11:30.012Z,11.60
2022-11-14T10:14:06.148Z,11.23
2022-11-14T10:16:44.735Z,10.93
2022-11-14T10:19:27.148Z,11.77
2022-11-14T10:22:24.730Z,10.55
2022-11-14T10:25:18.536Z,10.40
2022-11-14T10:28:05.630Z,10.87
2022-11-14T10:30:40.999Z,11.05
2022-11-14T10:33:28.155Z,11.93
2022-11-14T10:36:12.984Z,10.98
2022-11-14T10:38:48.311Z,12.15
2022-11-14T10:41:34.819Z,10.53
2022-11-14T10:44:03.105Z,10.40
2022-11-14T10:46:33.383Z,10.23
2022-11-14T10:49:00.933Z,10.98
2022-11-14T10:51:35.958Z,11.18
2022-11-14T10:54:33.001Z,11.60
2022-11-14T10:56:59.582Z,11.43
2022-11-14T10:59:27.776Z,10.38
2022-11-14T11:01:57.151Z,10.70
2022-11-14T11:04:32.393Z,11.52
2022-11-14T11:07:07.989Z,10.80
2022-11-14T11:09:58.009Z,11.50
2022-11-14T11:12:42.889Z,11.93
2022-11-14T11:15:20.153Z,10.63
2022-11-14T11:18:04.605Z,10.48
2022-11-14T11:20:37.293Z,11.30
2022-11-14T11:23:09.573Z,10.52
2022-11-14T11:25:38.032Z,11.65
2022-11-14T11:28:21.875Z,10.45
2022-11-14T11:30:56.478Z,11.05
2022-11-14T11:33:26.614Z,10.37
2022-11-14T11:36:11.721Z,10.88
2022-11-14T11:38:38.605Z,9.68
2022-11-14T11:44:16.755Z,9.32
2022-11-14T11:46:57.641Z,11.57
2022-11-14T11:49:30.342Z,10.68
2022-11-14T11:52:05.513Z,11.20
2022-11-14T11:54:49.385Z,9.90
2022-11-14T11:57:21.946Z,10.75
2022-11-14T11:59:54.199Z,10.60
2022-11-14T12:02:26.338Z,10.80
2022-11-14T12:04:55.269Z,10.43
2022-11-14T12:07:45.002Z,10.05
2022-11-14T12:10:22.608Z,11.25
2022-11-14T12:13:07.339Z,9.60
2022-11-14T12:16:01.540Z,10.15
2022-11-14T12:19:19.179Z,10.23
2022-11-14T12:22:13.504Z,10.52
2022-11-14T12:24:52.179Z,11.00
2022-11-14T12:27:42.412Z,9.43
2022-11-14T12:30:11.688Z,9.98
2022-11-14T12:33:03.682Z,11.05
2022-11-14T12:35:33.582Z,10.10
2022-11-14T12:38:04.934Z,9.88
2022-11-14T12:40:34.585Z,10.20
2022-11-14T12:43:03.180Z,9.73
2022-11-14T12:45:41.868Z,10.93
2022-11-14T12:48:31.167Z,10.40
2022-11-14T12:50:59.600Z,10.82
2022-11-14T12:53:37.933Z,10.37
2022-11-14T12:56:28.859Z,10.23
2022-11-14T12:59:24.543Z,10.20
2022-11-14T13:01:53.937Z,9.93
2022-11-14T13:04:38.944Z,10.07
2022-11-14T13:07:34.060Z,10.10
2022-11-14T13:10:10.116Z,8.85
2022-11-14T13:12:56.242Z,9.98
2022-11-14T13:15:49.444Z,9.10
2022-11-14T13:18:41.155Z,8.98
2022-11-14T13:21:35.455Z,9.80
2022-11-14T13:24:02.577Z,8.85
2022-11-14T13:26:31.808Z,9.20
2022-11-14T13:29:00.098Z,8.85
2022-11-14T13:31:35.853Z,9.52
2022-11-14T13:34:59.801Z,9.70
2022-11-14T13:38:01.766Z,9.27
2022-11-14T13:40:46.521Z,9.95
2022-11-14T13:43:50.781Z,9.95
2022-11-14T13:46:23.302Z,10.85
2022-11-14T13:49:14.316Z,10.93
2022-11-14T13:51:43.664Z,9.82
2022-11-14T13:54:18.280Z,9.07
2022-11-14T13:56:57.472Z,8.70
2022-11-14T13:59:46.597Z,9.48
2022-11-14T14:02:13.078Z,8.00
2022-11-14T14:05:00.711Z,7.30
2022-11-14T14:07:49.264Z,7.63
2022-11-14T14:10:25.108Z,8.23
2022-11-14T14:13:03.740Z,8.18
2022-11-14T14:16:25.767Z,8.03
2022-11-14T14:19:05.855Z,7.80
2022-11-14T14:21:54.300Z,8.15
2022-11-14T14:25:15.310Z,8.35
2022-11-14T14:27:57.804Z,8.52
2022-11-14T14:30:24.533Z,7.80
2022-11-14T14:33:10.026Z,8.60
2022-11-14T14:35:40.884Z,8.60
2022-11-14T14:38:22.865Z,9.60
2022-11-14T14:40:49.480Z,9.23
2022-11-14T14:43:35.368Z,9.17
2022-11-14T14:46:02.145Z,8.77
2022-11-14T14:48:31.748Z,8.07
2022-11-14T14:51:00.215Z,8.88
2022-11-14T14:53:35.330Z,8.38
2022-11-14T14:56:13.814Z,9.07
2022-11-14T14:58:40.564Z,8.55
2022-11-14T15:01:12.938Z,8.65
2022-11-14T15:03:51.673Z,14.77
2022-11-14T15:06:29.741Z,8.25
2022-11-14T15:09:00.045Z,8.00
2022-11-14T15:11:32.401Z,9.10
2022-11-14T15:14:01.706Z,9.57
2022-11-14T15:16:29.658Z,9.30
2022-11-14T15:18:58.233Z,9.07
2022-11-14T15:21:29.379Z,8.80
2022-11-14T15:24:18.948Z,8.38
2022-11-14T15:26:47.513Z,9.07
2022-11-14T15:29:25.829Z,9.32
2022-11-14T15:31:57.966Z,9.20
2022-11-14T15:34:31.993Z,9.93
2022-11-14T15:37:28.377Z,8.65
2022-11-14T15:40:16.150Z,10.18
2022-11-14T15:42:42.682Z,10.40
2022-11-14T15:45:23.929Z,10.25
2022-11-14T15:48:03.298Z,9.07
2022-11-14T15:50:35.192Z,10.20
2022-11-14T15:53:03.902Z,10.50
2022-11-14T15:55:30.471Z,9.88
2022-11-14T15:58:21.523Z,9.60
2022-11-14T16:00:53.269Z,10.33
2022-11-14T16:03:22.496Z,9.82
2022-11-14T16:05:49.081Z,12.15
2022-11-14T16:08:15.786Z,10.20
2022-11-14T16:10:42.344Z,11.27
2022-11-14T16:13:10.168Z,10.17
2022-11-14T16:15:37.013Z,10.95
2022-11-14T16:18:05.257Z,11.73
2022-11-14T16:20:37.179Z,11.35
2022-11-14T16:23:05.002Z,11.88
2022-11-14T16:25:32.104Z,12.20
2022-11-14T16:27:58.686Z,12.40
2022-11-14T16:30:26.307Z,13.20
2022-11-14T16:32:52.906Z,12.43
2022-11-14T16:35:25.439Z,13.35
2022-11-14T16:37:55.331Z,13.77
2022-11-14T16:40:28.091Z,12.23
2022-11-14T16:42:56.449Z,13.07
2022-11-14T16:45:23.863Z,13.13
2022-11-14T16:47:50.636Z,14.25
2022-11-14T16:50:18.819Z,14.63
2022-11-14T16:52:45.486Z,15.77
2022-11-14T16:55:12.715Z,16.70
2022-11-14T16:57:39.933Z,17.73
2022-11-14T17:00:09.052Z,17.02
2022-11-14T17:02:35.599Z,16.87
2022-11-14T17:05:02.159Z,18.30
2022-11-14T17:07:33.481Z,17.27
2022-11-14T17:10:00.952Z,15.45
2022-11-14T17:12:28.748Z,15.82
2022-11-14T17:14:55.303Z,14.47
2022-11-14T17:17:22.034Z,15.45
2022-11-14T17:19:49.126Z,15.57
2022-11-14T17:22:17.231Z,15.45
2022-11-14T17:24:44.554Z,15.90
2022-11-14T17:27:12.954Z,15.67
2022-11-14T17:29:39.669Z,14.00
2022-11-14T17:32:06.275Z,13.90
2022-11-14T17:34:32.795Z,16.05
2022-11-14T17:36:59.308Z,15.95
2022-11-14T17:39:26.269Z,14.77
2022-11-14T17:41:52.953Z,15.00
2022-11-14T17:44:19.528Z,14.95
2022-11-14T17:46:47.895Z,13.32
2022-11-14T17:49:14.411Z,13.75
2022-11-14T17:51:40.919Z,13.63
2022-11-14T17:54:07.502Z,14.02
2022-11-14T17:56:34.154Z,15.50
2022-11-14T17:59:01.348Z,14.80
2022-11-14T18:01:30.361Z,14.73
2022-11-14T18:04:00.516Z,13.63
2022-11-14T18:06:31.182Z,15.07
2022-11-14T18:08:57.878Z,12.43
2022-11-14T18:11:24.493Z,12.70
2022-11-14T18:13:55.494Z,16.40
2022-11-14T18:16:26.330Z,13.63
2022-11-14T18:18:58.026Z,14.68
2022-11-14T18:21:25.828Z,14.40
2022-11-14T18:23:54.308Z,14.52
2022-11-14T18:26:27.008Z,15.18
2022-11-14T18:28:58.263Z,15.17
2022-11-14T18:31:25.567Z,17.05
2022-11-14T18:33:52.150Z,16.10
2022-11-14T18:36:19.081Z,15.20
2022-11-14T18:38:46.086Z,15.68
2022-11-14T18:41:21.400Z,16.53
2022-11-14T18:43:48.512Z,16.77
2022-11-14T18:46:16.526Z,19.50
2022-11-14T18:48:45.515Z,17.90
2022-11-14T18:51:17.438Z,19.10
2022-11-14T18:53:44.510Z,18.43
2022-11-14T18:56:13.752Z,17.52
2022-11-14T18:58:41.654Z,18.45
2022-11-14T19:01:23.997Z,20.65
2022-11-14T19:03:51.883Z,19.13
2022-11-14T19:06:18.601Z,17.57
2022-11-14T19:08:45.149Z,17.90
2022-11-14T19:11:33.909Z,18.85
2022-11-14T19:14:02.549Z,17.98
2022-11-14T19:16:29.246Z,18.33
2022-11-14T19:18:55.840Z,18.37
2022-11-14T19:21:22.361Z,17.45
2022-11-14T19:23:50.466Z,18.67
2022-11-14T19:26:17.204Z,18.08
2022-11-14T19:28:43.739Z,18.67
2022-11-14T19:31:11.025Z,18.63
2022-11-14T19:33:41.436Z,17.88
2022-11-14T19:36:12.135Z,16.95
2022-11-14T19:38:38.747Z,18.00
2022-11-14T19:41:13.964Z,19.42
2022-11-14T19:43:42.710Z,18.20
2022-11-14T19:46:10.543Z,19.02
2022-11-14T19:48:37.899Z,19.10
2022-11-14T19:51:07.182Z,17.52
2022-11-14T19:53:34.900Z,18.85
2022-11-14T19:56:06.993Z,16.50
2022-11-14T19:58:36.995Z,18.05
2022-11-14T20:01:11.068Z,17.73
2022-11-14T20:03:38.612Z,17.83
2022-11-14T20:06:17.352Z,17.27
2022-11-14T20:08:43.986Z,17.03
2022-11-14T20:11:10.851Z,17.75
2022-11-14T20:13:39.838Z,16.33
2022-11-14T20:16:14.251Z,16.90
2022-11-14T20:18:42.834Z,17.08
2022-11-14T20:21:13.247Z,16.40
2022-11-14T20:23:40.358Z,15.30
2022-11-14T20:26:11.269Z,17.13
2022-11-14T20:28:41.040Z,14.98
2022-11-14T20:31:11.666Z,16.67
2022-11-14T20:33:40.991Z,16.13
2022-11-14T20:36:12.332Z,16.10
2022-11-14T20:38:38.973Z,16.63
2022-11-14T20:41:05.970Z,15.95
2022-11-14T20:43:33.049Z,16.08
2022-11-14T20:46:09.708Z,15.57
2022-11-14T20:48:36.421Z,15.52
2022-11-14T20:51:03.734Z,15.98
2022-11-14T20:53:31.455Z,15.40
2022-11-14T20:55:58.755Z,14.63
2022-11-14T20:58:25.903Z,15.33
2022-11-14T21:00:53.506Z,15.40
2022-11-14T21:03:20.504Z,16.95
2022-11-14T21:05:47.319Z,15.43
2022-11-14T21:08:14.627Z,14.90
2022-11-14T21:10:46.485Z,15.00
2022-11-14T21:13:40.891Z,14.57
2022-11-14T21:16:10.811Z,15.57
2022-11-14T21:18:38.991Z,15.90
2022-11-14T21:21:10.324Z,14.95
2022-11-14T21:23:37.256Z,15.30
2022-11-14T21:26:13.356Z,15.40
2022-11-14T21:28:42.282Z,15.57
2022-11-14T21:31:33.458Z,15.70
2022-11-14T21:34:02.043Z,15.93
2022-11-14T21:36:44.371Z,15.30
2022-11-14T21:39:16.395Z,16.83
2022-11-14T21:41:44.571Z,16.30
2022-11-14T21:44:14.469Z,15.85
2022-11-14T21:46:41.168Z,18.80
2022-11-14T21:49:08.993Z,17.37
2022-11-14T21:51:36.041Z,16.73
2022-11-14T21:54:06.475Z,19.20
2022-11-14T21:56:35.835Z,15.43
2022-11-14T21:59:13.378Z,17.38
2022-11-14T22:02:01.126Z,18.17
2022-11-14T22:04:28.607Z,17.27
2022-11-14T22:06:55.843Z,17.50
2022-11-14T22:09:22.487Z,19.08
2022-11-14T22:11:49.368Z,18.92
2022-11-14T22:14:15.958Z,18.13
2022-11-14T22:16:42.553Z,16.77
2022-11-14T22:19:09.112Z,18.50
2022-11-14T22:21:35.617Z,20.20
2022-11-14T22:24:02.213Z,20.92
2022-11-14T22:26:28.850Z,20.40
2022-11-14T22:28:55.372Z,19.55
2022-11-14T22:31:23.788Z,20.08
2022-11-14T22:33:52.740Z,19.92
2022-11-14T22:36:21.982Z,21.55
2022-11-14T22:38:49.490Z,19.77
2022-11-14T22:41:18.796Z,19.65
2022-11-14T22:43:46.720Z,22.65
2022-11-14T22:46:15.660Z,22.55
2022-11-14T22:48:43.500Z,23.00
2022-11-14T22:51:18.032Z,24.07
2022-11-14T22:53:49.946Z,22.23
2022-11-14T22:56:18.435Z,21.27
2022-11-14T22:58:45.717Z,19.75
2022-11-14T23:01:16.037Z,22.75
2022-11-14T23:03:42.663Z,23.30
2022-11-14T23:06:10.952Z,23.65
2022-11-14T23:08:38.215Z,22.67
2022-11-14T23:11:07.212Z,22.42
2022-11-14T23:13:38.451Z,26.17
2022-11-14T23:16:07.605Z,22.63
2022-11-14T23:18:35.355Z,23.55
2022-11-14T23:21:05.646Z,23.90
2022-11-14T23:23:32.819Z,25.50
2022-11-14T23:26:08.145Z,24.92
2022-11-14T23:28:35.237Z,23.10
2022-11-14T23:31:02.653Z,24.70
2022-11-14T23:33:30.015Z,23.83
2022-11-14T23:35:56.938Z,24.08
2022-11-14T23:38:23.680Z,22.73
2022-11-14T23:40:57.706Z,23.27
2022-11-14T23:43:24.357Z,25.08
2022-11-14T23:45:51.181Z,24.90
2022-11-14T23:48:19.150Z,24.80
2022-11-14T23:50:52.928Z,25.60
2022-11-14T23:53:20.192Z,25.13
2022-11-14T23:55:53.587Z,23.33
2022-11-14T23:58:21.258Z,23.30
